TPOK1: Kansas River, State-Line, KS

                                SHEF ID:       TPOK1     MARAIS DES CYGNES R NR KS-MO ST
STATION TYPE:

STAGE STAGE(2) RIV-FLOW BAT-LOAD
ft ft cfs volt
Ccp-Rev Ccp-Rev Ccp-Rev Ccp-Rev
(America/Chicago)
06/21 00:00 8.89 8.97 2689 12.54
06/21 01:00 8.82 8.91 2643 12.53
06/21 02:00 8.77 8.89 2611 12.50
06/21 03:00 8.74 8.86 2591 12.48
06/21 04:00 8.69 8.78 2559 12.46
06/21 05:00 8.67 8.71 2546 12.44
06/21 06:00 8.64 8.71 2526 12.42
06/21 07:00 8.63 8.71 2520 12.40
06/21 08:00 8.63 8.69 2520 12.40
06/21 09:00 8.65 8.69 2533 12.40
06/21 10:00 8.64 8.73 2526 12.47
06/21 11:00 8.75 8.85 2598 13.05
06/21 12:00 8.87 8.95 2676 13.42
06/21 13:00 8.96 9.08 2735 13.14
06/21 14:00 9.06 9.14 2802 13.30
06/21 15:00 9.16 9.26 2869 13.26
06/21 16:00 9.24 9.32 2923 13.06
06/21 17:00 9.34 9.41 2991 13.05
06/21 18:00 9.39 9.47 3025 13.03
06/21 19:00 9.49 9.55 3094 12.76
06/21 20:00 9.53 9.63 3122 12.66
06/21 21:00 9.58 9.68 3157 12.60
06/21 22:00 9.61 9.72 3178 12.61
06/21 23:00 9.63 9.75 3192 12.56
Data processed at Mon 22Jun2026 04:52 GMT

NOTICE: If you are parsing this page

Please convert to using our Data API. Starting early 2026 we will be migrating to: https://water.usace.army.mil with modern pages rendered in JavaScript. When this migration completes you will no longer be able to scrape this page! CWMSDataAPI (CDA)

Timeseries IDs (TSIDs)

TSIDs used from left to right in the data table
MKSL.Stage.Inst.1Hour.0.Ccp-Rev
MKSL.Stage-Alt.Inst.1Hour.0.Ccp-Rev
MKSL.Flow.Inst.1Hour.0.Ccp-Rev
MKSL.Volt-Battery Load.Inst.1Hour.0.Ccp-Rev

                            

All information presented herein is the property of the government of the United States of America and may be revised or deleted at any time without prior notice. Dissemination of this information without the expressed written consent of the Public Affairs Office, Tulsa District U.S. Army Corps of Engineers is strictly prohibited. These data are gathered electronically and, as presented, have NOT undergone any form of quality control. These data are NOT guaranteed to be valid or correct.